Leopolda — IM4646 — position and weather

sailwx.info

Track history (hours):
 
Tides and Currents Weather Stations Pressure Air Temp Water Temp Dewpoint Dewpoint Depression Visibility Wind Speed Wind Dir Waves Ship Positions

Leopolda

Last reported at 2015-Mar-19 11:11 UTC. Time now 2015-Apr-18 03:28 UTC.
Position N 43°39' E 010°21'.
Warning: this ship's position is 29 days out of date.

Length 30 m.

Type: Pleasure craft. MMSI: 247207730.

Date/timePositionNaut miles runAvg speedWind from/ knotsBaromVisibWave heightAir tempDewpointWater temp
2015-Mar-19 11:11N 43°39' E 010°21'0 0.0
2015-Mar-19 10:32N 43°39' E 010°21'4 2.5
2015-Mar-19 09:04N 43°35' E 010°19'2 3.6
2015-Mar-19 08:33N 43°34' E 010°18'6 6.1
2015-Mar-19 07:33N 43°29' E 010°14'1 1.1
2015-Mar-19 06:33N 43°27' E 010°14'22010.5
2015-Mar-18 09:32N 40°48' E 013°40'1211.2
2015-Mar-18 08:30N 40°41' E 013°52'  
2015-Mar-16 04:27N 40°33' E 014°15'0 0.0
2015-Mar-16 02:09N 40°33' E 014°15'0 0.0
2015-Mar-15 23:27N 40°33' E 014°15'0 0.0
2015-Mar-15 22:33N 40°33' E 014°15'0 0.0
2015-Mar-15 21:15N 40°33' E 014°15'  
Track history (hours):
 
Tides and Currents Weather Stations Pressure Air Temp Water Temp Dewpoint Dewpoint Depression Visibility Wind Speed Wind Dir Waves Ship Positions

Leopolda

Last reported at 2015-Mar-19 11:11 UTC. Time now 2015-Apr-18 03:28 UTC.
Position N 43°39' E 010°21'.
Warning: this ship's position is 29 days out of date.

Length 30 m.

Type: Pleasure craft. MMSI: 247207730.

Date/timePositionNaut miles runAvg speedWind from/ knotsBaromVisibWave heightAir tempDewpointWater temp
2015-Mar-19 11:11N 43°39' E 010°21'0 0.0
2015-Mar-19 10:32N 43°39' E 010°21'4 2.5
2015-Mar-19 09:04N 43°35' E 010°19'2 3.6
2015-Mar-19 08:33N 43°34' E 010°18'6 6.1
2015-Mar-19 07:33N 43°29' E 010°14'1 1.1
2015-Mar-19 06:33N 43°27' E 010°14'22010.5
2015-Mar-18 09:32N 40°48' E 013°40'1211.2
2015-Mar-18 08:30N 40°41' E 013°52'  
2015-Mar-16 04:27N 40°33' E 014°15'0 0.0
2015-Mar-16 02:09N 40°33' E 014°15'0 0.0
2015-Mar-15 23:27N 40°33' E 014°15'0 0.0
2015-Mar-15 22:33N 40°33' E 014°15'0 0.0
2015-Mar-15 21:15N 40°33' E 014°15'  

Dump ship's entire track history